sensor_id;sensor_type;location;lat;lon;timestamp;P1;durP1;ratioP1;P2;durP2;ratioP2
25639;SDS011;13497;48.322;16.204;2022-11-03T00:00:09;1.60;;;0.23;;
25639;SDS011;13497;48.322;16.204;2022-11-03T00:05:01;1.75;;;0.52;;
25639;SDS011;13497;48.322;16.204;2022-11-03T00:07:47;1.20;;;0.52;;
25639;SDS011;13497;48.322;16.204;2022-11-03T00:10:12;2.13;;;0.47;;
25639;SDS011;13497;48.322;16.204;2022-11-03T00:12:38;7.03;;;0.67;;
25639;SDS011;13497;48.322;16.204;2022-11-03T00:15:04;2.53;;;0.80;;
25639;SDS011;13497;48.322;16.204;2022-11-03T00:17:30;0.32;;;0.30;;
25639;SDS011;13497;48.322;16.204;2022-11-03T00:19:56;1.47;;;0.73;;
25639;SDS011;13497;48.322;16.204;2022-11-03T00:22:21;1.80;;;0.40;;
25639;SDS011;13497;48.322;16.204;2022-11-03T00:24:47;0.40;;;0.40;;
25639;SDS011;13497;48.322;16.204;2022-11-03T00:27:12;0.33;;;0.20;;
25639;SDS011;13497;48.322;16.204;2022-11-03T00:29:38;2.53;;;0.43;;
25639;SDS011;13497;48.322;16.204;2022-11-03T00:32:04;1.27;;;0.70;;
25639;SDS011;13497;48.322;16.204;2022-11-03T00:34:29;1.60;;;0.70;;
25639;SDS011;13497;48.322;16.204;2022-11-03T00:36:55;4.73;;;0.43;;
25639;SDS011;13497;48.322;16.204;2022-11-03T00:39:20;0.50;;;0.30;;
25639;SDS011;13497;48.322;16.204;2022-11-03T00:41:46;1.50;;;0.40;;
25639;SDS011;13497;48.322;16.204;2022-11-03T00:44:12;3.60;;;0.23;;
25639;SDS011;13497;48.322;16.204;2022-11-03T00:46:37;0.43;;;0.43;;
25639;SDS011;13497;48.322;16.204;2022-11-03T00:49:03;0.20;;;0.20;;
25639;SDS011;13497;48.322;16.204;2022-11-03T00:51:29;0.85;;;0.47;;
25639;SDS011;13497;48.322;16.204;2022-11-03T00:53:59;0.30;;;0.20;;
25639;SDS011;13497;48.322;16.204;2022-11-03T00:58:53;0.32;;;0.32;;
25639;SDS011;13497;48.322;16.204;2022-11-03T01:01:20;0.20;;;0.20;;
25639;SDS011;13497;48.322;16.204;2022-11-03T01:03:49;5.28;;;0.70;;
25639;SDS011;13497;48.322;16.204;2022-11-03T01:06:37;0.90;;;0.55;;
25639;SDS011;13497;48.322;16.204;2022-11-03T01:09:14;0.50;;;0.30;;
25639;SDS011;13497;48.322;16.204;2022-11-03T01:11:41;0.52;;;0.28;;
25639;SDS011;13497;48.322;16.204;2022-11-03T01:14:08;1.13;;;0.68;;
25639;SDS011;13497;48.322;16.204;2022-11-03T01:16:35;1.65;;;0.32;;
25639;SDS011;13497;48.322;16.204;2022-11-03T01:19:01;1.03;;;0.40;;
25639;SDS011;13497;48.322;16.204;2022-11-03T01:21:27;0.40;;;0.40;;
25639;SDS011;13497;48.322;16.204;2022-11-03T01:23:52;0.50;;;0.40;;
25639;SDS011;13497;48.322;16.204;2022-11-03T01:26:18;0.73;;;0.60;;
25639;SDS011;13497;48.322;16.204;2022-11-03T01:28:45;1.95;;;0.22;;
25639;SDS011;13497;48.322;16.204;2022-11-03T01:31:13;2.65;;;0.88;;
25639;SDS011;13497;48.322;16.204;2022-11-03T01:33:41;0.70;;;0.40;;
25639;SDS011;13497;48.322;16.204;2022-11-03T01:36:09;0.88;;;0.38;;
25639;SDS011;13497;48.322;16.204;2022-11-03T01:38:38;0.55;;;0.50;;
25639;SDS011;13497;48.322;16.204;2022-11-03T01:41:06;1.02;;;0.73;;
25639;SDS011;13497;48.322;16.204;2022-11-03T01:43:33;0.43;;;0.25;;
25639;SDS011;13497;48.322;16.204;2022-11-03T01:48:56;1.15;;;0.50;;
25639;SDS011;13497;48.322;16.204;2022-11-03T01:51:26;0.95;;;0.52;;
25639;SDS011;13497;48.322;16.204;2022-11-03T01:53:55;0.47;;;0.47;;
25639;SDS011;13497;48.322;16.204;2022-11-03T01:56:25;0.70;;;0.47;;
25639;SDS011;13497;48.322;16.204;2022-11-03T01:58:53;0.55;;;0.55;;
25639;SDS011;13497;48.322;16.204;2022-11-03T02:01:20;1.17;;;0.40;;
25639;SDS011;13497;48.322;16.204;2022-11-03T02:06:15;0.30;;;0.30;;
25639;SDS011;13497;48.322;16.204;2022-11-03T02:08:44;1.58;;;0.63;;
25639;SDS011;13497;48.322;16.204;2022-11-03T02:11:13;1.02;;;0.60;;
25639;SDS011;13497;48.322;16.204;2022-11-03T02:13:58;2.83;;;0.47;;
25639;SDS011;13497;48.322;16.204;2022-11-03T02:16:23;4.60;;;0.70;;
25639;SDS011;13497;48.322;16.204;2022-11-03T02:18:51;0.40;;;0.22;;
25639;SDS011;13497;48.322;16.204;2022-11-03T02:26:50;0.65;;;0.50;;
25639;SDS011;13497;48.322;16.204;2022-11-03T02:29:19;0.85;;;0.45;;
25639;SDS011;13497;48.322;16.204;2022-11-03T02:31:46;0.10;;;0.10;;
25639;SDS011;13497;48.322;16.204;2022-11-03T02:34:16;0.50;;;0.40;;
25639;SDS011;13497;48.322;16.204;2022-11-03T02:42:12;0.35;;;0.25;;
25639;SDS011;13497;48.322;16.204;2022-11-03T02:44:40;0.63;;;0.22;;
25639;SDS011;13497;48.322;16.204;2022-11-03T02:47:08;11.18;;;0.50;;
25639;SDS011;13497;48.322;16.204;2022-11-03T02:49:39;0.77;;;0.60;;
25639;SDS011;13497;48.322;16.204;2022-11-03T02:55:28;0.30;;;0.30;;
25639;SDS011;13497;48.322;16.204;2022-11-03T03:00:48;0.93;;;0.50;;
25639;SDS011;13497;48.322;16.204;2022-11-03T03:05:58;3.50;;;0.75;;
25639;SDS011;13497;48.322;16.204;2022-11-03T03:08:29;0.20;;;0.10;;
25639;SDS011;13497;48.322;16.204;2022-11-03T03:10:56;0.25;;;0.20;;
25639;SDS011;13497;48.322;16.204;2022-11-03T03:13:24;2.88;;;1.63;;
25639;SDS011;13497;48.322;16.204;2022-11-03T03:18:41;1.02;;;0.80;;
25639;SDS011;13497;48.322;16.204;2022-11-03T03:21:12;0.70;;;0.40;;
25639;SDS011;13497;48.322;16.204;2022-11-03T03:23:53;27.77;;;11.93;;
25639;SDS011;13497;48.322;16.204;2022-11-03T03:26:25;31.15;;;11.77;;
25639;SDS011;13497;48.322;16.204;2022-11-03T03:28:58;46.60;;;18.63;;
25639;SDS011;13497;48.322;16.204;2022-11-03T03:31:30;23.02;;;7.68;;
25639;SDS011;13497;48.322;16.204;2022-11-03T03:33:58;1.70;;;0.60;;
25639;SDS011;13497;48.322;16.204;2022-11-03T03:36:25;3.72;;;0.70;;
25639;SDS011;13497;48.322;16.204;2022-11-03T03:38:56;1.98;;;0.55;;
25639;SDS011;13497;48.322;16.204;2022-11-03T03:41:25;0.50;;;0.50;;
25639;SDS011;13497;48.322;16.204;2022-11-03T03:43:57;0.43;;;0.40;;
25639;SDS011;13497;48.322;16.204;2022-11-03T03:46:28;1.15;;;0.60;;
25639;SDS011;13497;48.322;16.204;2022-11-03T03:48:58;1.50;;;0.70;;
25639;SDS011;13497;48.322;16.204;2022-11-03T03:51:24;0.17;;;0.17;;
25639;SDS011;13497;48.322;16.204;2022-11-03T03:53:52;0.50;;;0.50;;
25639;SDS011;13497;48.322;16.204;2022-11-03T03:58:50;0.63;;;0.63;;
25639;SDS011;13497;48.322;16.204;2022-11-03T04:01:16;0.10;;;0.10;;
25639;SDS011;13497;48.322;16.204;2022-11-03T04:03:42;0.80;;;0.47;;
25639;SDS011;13497;48.322;16.204;2022-11-03T04:06:07;1.80;;;0.53;;
25639;SDS011;13497;48.322;16.204;2022-11-03T04:08:34;0.73;;;0.55;;
25639;SDS011;13497;48.322;16.204;2022-11-03T04:11:00;0.57;;;0.55;;
25639;SDS011;13497;48.322;16.204;2022-11-03T04:13:44;0.70;;;0.52;;
25639;SDS011;13497;48.322;16.204;2022-11-03T04:16:28;0.75;;;0.63;;
25639;SDS011;13497;48.322;16.204;2022-11-03T04:19:12;3.25;;;1.27;;
25639;SDS011;13497;48.322;16.204;2022-11-03T04:21:56;3.85;;;2.38;;
25639;SDS011;13497;48.322;16.204;2022-11-03T04:24:40;4.75;;;1.88;;
25639;SDS011;13497;48.322;16.204;2022-11-03T04:29:41;1.90;;;1.27;;
25639;SDS011;13497;48.322;16.204;2022-11-03T04:32:09;2.23;;;1.10;;
25639;SDS011;13497;48.322;16.204;2022-11-03T04:34:41;1.92;;;0.40;;
25639;SDS011;13497;48.322;16.204;2022-11-03T04:37:13;0.60;;;0.47;;
25639;SDS011;13497;48.322;16.204;2022-11-03T04:39:39;0.73;;;0.63;;
25639;SDS011;13497;48.322;16.204;2022-11-03T04:42:16;1.58;;;0.88;;
25639;SDS011;13497;48.322;16.204;2022-11-03T04:44:44;1.75;;;1.02;;
25639;SDS011;13497;48.322;16.204;2022-11-03T04:47:14;0.70;;;0.55;;
25639;SDS011;13497;48.322;16.204;2022-11-03T04:49:41;2.33;;;1.20;;
25639;SDS011;13497;48.322;16.204;2022-11-03T04:52:09;1.10;;;0.88;;
25639;SDS011;13497;48.322;16.204;2022-11-03T04:54:41;4.05;;;0.60;;
25639;SDS011;13497;48.322;16.204;2022-11-03T04:57:08;1.48;;;1.00;;
25639;SDS011;13497;48.322;16.204;2022-11-03T04:59:37;2.00;;;0.93;;
25639;SDS011;13497;48.322;16.204;2022-11-03T05:02:03;3.40;;;0.90;;
25639;SDS011;13497;48.322;16.204;2022-11-03T05:04:33;0.75;;;0.68;;
25639;SDS011;13497;48.322;16.204;2022-11-03T05:06:59;1.80;;;1.23;;
25639;SDS011;13497;48.322;16.204;2022-11-03T05:09:26;0.93;;;0.83;;
25639;SDS011;13497;48.322;16.204;2022-11-03T05:11:54;1.02;;;0.77;;
25639;SDS011;13497;48.322;16.204;2022-11-03T05:14:25;1.23;;;1.00;;
25639;SDS011;13497;48.322;16.204;2022-11-03T05:16:54;1.55;;;0.98;;
25639;SDS011;13497;48.322;16.204;2022-11-03T05:21:46;0.87;;;0.63;;
25639;SDS011;13497;48.322;16.204;2022-11-03T05:24:14;2.00;;;1.25;;
25639;SDS011;13497;48.322;16.204;2022-11-03T05:26:40;2.17;;;1.30;;
25639;SDS011;13497;48.322;16.204;2022-11-03T05:31:47;2.35;;;0.80;;
25639;SDS011;13497;48.322;16.204;2022-11-03T05:36:49;3.03;;;1.70;;
25639;SDS011;13497;48.322;16.204;2022-11-03T05:41:59;1.90;;;1.63;;
25639;SDS011;13497;48.322;16.204;2022-11-03T05:44:31;1.92;;;1.45;;
25639;SDS011;13497;48.322;16.204;2022-11-03T05:47:21;4.25;;;1.33;;
25639;SDS011;13497;48.322;16.204;2022-11-03T05:49:52;1.23;;;0.60;;
25639;SDS011;13497;48.322;16.204;2022-11-03T05:52:24;3.15;;;0.80;;
25639;SDS011;13497;48.322;16.204;2022-11-03T05:54:52;2.15;;;1.15;;
25639;SDS011;13497;48.322;16.204;2022-11-03T05:57:21;2.33;;;1.80;;
25639;SDS011;13497;48.322;16.204;2022-11-03T05:59:49;3.72;;;2.33;;
25639;SDS011;13497;48.322;16.204;2022-11-03T06:05:02;2.83;;;1.10;;
25639;SDS011;13497;48.322;16.204;2022-11-03T06:07:35;3.25;;;0.73;;
25639;SDS011;13497;48.322;16.204;2022-11-03T06:10:01;0.60;;;0.60;;
25639;SDS011;13497;48.322;16.204;2022-11-03T06:12:26;0.90;;;0.50;;
25639;SDS011;13497;48.322;16.204;2022-11-03T06:14:54;2.08;;;0.57;;
25639;SDS011;13497;48.322;16.204;2022-11-03T06:17:23;1.80;;;0.87;;
25639;SDS011;13497;48.322;16.204;2022-11-03T06:19:52;1.23;;;0.90;;
25639;SDS011;13497;48.322;16.204;2022-11-03T06:22:21;6.32;;;1.30;;
25639;SDS011;13497;48.322;16.204;2022-11-03T06:24:54;2.42;;;1.15;;
25639;SDS011;13497;48.322;16.204;2022-11-03T06:27:24;0.65;;;0.65;;
25639;SDS011;13497;48.322;16.204;2022-11-03T06:29:54;2.95;;;1.65;;
25639;SDS011;13497;48.322;16.204;2022-11-03T06:32:23;1.27;;;0.80;;
25639;SDS011;13497;48.322;16.204;2022-11-03T06:34:49;2.22;;;0.98;;
25639;SDS011;13497;48.322;16.204;2022-11-03T06:39:59;1.70;;;1.20;;
25639;SDS011;13497;48.322;16.204;2022-11-03T06:42:40;4.40;;;0.80;;
25639;SDS011;13497;48.322;16.204;2022-11-03T06:45:13;1.90;;;0.93;;
25639;SDS011;13497;48.322;16.204;2022-11-03T06:47:44;0.95;;;0.85;;
25639;SDS011;13497;48.322;16.204;2022-11-03T06:50:29;2.10;;;0.90;;
25639;SDS011;13497;48.322;16.204;2022-11-03T06:52:56;2.60;;;1.45;;
25639;SDS011;13497;48.322;16.204;2022-11-03T06:55:24;1.63;;;0.82;;
25639;SDS011;13497;48.322;16.204;2022-11-03T06:57:52;1.70;;;1.05;;
25639;SDS011;13497;48.322;16.204;2022-11-03T07:03:09;5.03;;;1.58;;
25639;SDS011;13497;48.322;16.204;2022-11-03T07:05:43;1.80;;;1.27;;
25639;SDS011;13497;48.322;16.204;2022-11-03T07:10:49;1.52;;;1.13;;
25639;SDS011;13497;48.322;16.204;2022-11-03T07:13:21;2.85;;;1.13;;
25639;SDS011;13497;48.322;16.204;2022-11-03T07:15:48;1.38;;;1.13;;
25639;SDS011;13497;48.322;16.204;2022-11-03T07:20:43;3.40;;;1.27;;
25639;SDS011;13497;48.322;16.204;2022-11-03T07:23:11;2.15;;;0.90;;
25639;SDS011;13497;48.322;16.204;2022-11-03T07:25:40;5.18;;;1.60;;
25639;SDS011;13497;48.322;16.204;2022-11-03T07:28:07;2.80;;;0.97;;
25639;SDS011;13497;48.322;16.204;2022-11-03T07:30:34;2.63;;;1.77;;
25639;SDS011;13497;48.322;16.204;2022-11-03T07:33:11;1.77;;;1.27;;
25639;SDS011;13497;48.322;16.204;2022-11-03T07:35:50;1.85;;;1.25;;
25639;SDS011;13497;48.322;16.204;2022-11-03T07:38:20;2.88;;;1.05;;
25639;SDS011;13497;48.322;16.204;2022-11-03T07:40:49;1.60;;;1.20;;
25639;SDS011;13497;48.322;16.204;2022-11-03T07:43:17;1.50;;;1.35;;
25639;SDS011;13497;48.322;16.204;2022-11-03T07:45:52;1.73;;;1.00;;
25639;SDS011;13497;48.322;16.204;2022-11-03T07:48:20;5.50;;;1.02;;
25639;SDS011;13497;48.322;16.204;2022-11-03T07:50:49;1.02;;;0.93;;
25639;SDS011;13497;48.322;16.204;2022-11-03T07:53:32;2.53;;;0.80;;
25639;SDS011;13497;48.322;16.204;2022-11-03T07:56:01;1.65;;;1.20;;
25639;SDS011;13497;48.322;16.204;2022-11-03T07:58:42;5.22;;;1.08;;
25639;SDS011;13497;48.322;16.204;2022-11-03T08:01:20;0.73;;;0.60;;
25639;SDS011;13497;48.322;16.204;2022-11-03T08:03:49;1.17;;;1.00;;
25639;SDS011;13497;48.322;16.204;2022-11-03T08:06:15;2.35;;;0.70;;
25639;SDS011;13497;48.322;16.204;2022-11-03T08:08:40;2.53;;;0.70;;
25639;SDS011;13497;48.322;16.204;2022-11-03T08:11:06;1.87;;;0.73;;
25639;SDS011;13497;48.322;16.204;2022-11-03T08:13:32;1.77;;;1.05;;
25639;SDS011;13497;48.322;16.204;2022-11-03T08:15:58;0.73;;;0.52;;
25639;SDS011;13497;48.322;16.204;2022-11-03T08:18:24;1.77;;;1.23;;
25639;SDS011;13497;48.322;16.204;2022-11-03T08:20:49;3.50;;;1.17;;
25639;SDS011;13497;48.322;16.204;2022-11-03T08:23:15;3.00;;;0.77;;
25639;SDS011;13497;48.322;16.204;2022-11-03T08:25:41;1.23;;;0.60;;
25639;SDS011;13497;48.322;16.204;2022-11-03T08:28:07;2.72;;;0.73;;
25639;SDS011;13497;48.322;16.204;2022-11-03T08:30:33;0.50;;;0.45;;
25639;SDS011;13497;48.322;16.204;2022-11-03T08:32:59;1.63;;;0.60;;
25639;SDS011;13497;48.322;16.204;2022-11-03T08:35:25;1.17;;;0.55;;
25639;SDS011;13497;48.322;16.204;2022-11-03T08:37:51;0.75;;;0.60;;
25639;SDS011;13497;48.322;16.204;2022-11-03T08:40:17;0.60;;;0.50;;
25639;SDS011;13497;48.322;16.204;2022-11-03T08:42:42;1.87;;;0.93;;
25639;SDS011;13497;48.322;16.204;2022-11-03T08:45:08;1.25;;;0.70;;
25639;SDS011;13497;48.322;16.204;2022-11-03T08:47:35;1.33;;;0.57;;
25639;SDS011;13497;48.322;16.204;2022-11-03T08:50:01;5.57;;;0.90;;
25639;SDS011;13497;48.322;16.204;2022-11-03T08:52:26;2.83;;;1.40;;
25639;SDS011;13497;48.322;16.204;2022-11-03T08:54:53;12.07;;;3.80;;
25639;SDS011;13497;48.322;16.204;2022-11-03T08:59:44;4.13;;;0.73;;
25639;SDS011;13497;48.322;16.204;2022-11-03T09:02:10;4.33;;;0.83;;
25639;SDS011;13497;48.322;16.204;2022-11-03T09:04:36;0.87;;;0.70;;
25639;SDS011;13497;48.322;16.204;2022-11-03T09:07:01;1.03;;;0.57;;
25639;SDS011;13497;48.322;16.204;2022-11-03T09:09:27;1.07;;;0.80;;
25639;SDS011;13497;48.322;16.204;2022-11-03T09:11:53;0.87;;;0.60;;
25639;SDS011;13497;48.322;16.204;2022-11-03T09:14:18;0.70;;;0.50;;
25639;SDS011;13497;48.322;16.204;2022-11-03T09:16:44;2.00;;;0.93;;
25639;SDS011;13497;48.322;16.204;2022-11-03T09:19:09;2.77;;;0.40;;
25639;SDS011;13497;48.322;16.204;2022-11-03T09:21:35;5.37;;;0.90;;
25639;SDS011;13497;48.322;16.204;2022-11-03T09:24:00;1.30;;;0.73;;
25639;SDS011;13497;48.322;16.204;2022-11-03T09:26:26;3.10;;;0.80;;
25639;SDS011;13497;48.322;16.204;2022-11-03T09:28:52;0.77;;;0.50;;
25639;SDS011;13497;48.322;16.204;2022-11-03T09:31:17;3.17;;;0.80;;
25639;SDS011;13497;48.322;16.204;2022-11-03T09:33:43;0.60;;;0.60;;
25639;SDS011;13497;48.322;16.204;2022-11-03T09:36:09;1.85;;;0.85;;
25639;SDS011;13497;48.322;16.204;2022-11-03T09:38:35;0.65;;;0.60;;
25639;SDS011;13497;48.322;16.204;2022-11-03T09:41:01;0.80;;;0.67;;
25639;SDS011;13497;48.322;16.204;2022-11-03T09:43:29;0.85;;;0.50;;
25639;SDS011;13497;48.322;16.204;2022-11-03T09:45:56;0.35;;;0.35;;
25639;SDS011;13497;48.322;16.204;2022-11-03T09:48:23;5.00;;;0.45;;
25639;SDS011;13497;48.322;16.204;2022-11-03T09:50:51;0.32;;;0.32;;
25639;SDS011;13497;48.322;16.204;2022-11-03T09:53:21;0.45;;;0.40;;
25639;SDS011;13497;48.322;16.204;2022-11-03T09:55:47;0.80;;;0.40;;
25639;SDS011;13497;48.322;16.204;2022-11-03T09:58:14;1.85;;;0.75;;
25639;SDS011;13497;48.322;16.204;2022-11-03T10:00:41;0.40;;;0.40;;
25639;SDS011;13497;48.322;16.204;2022-11-03T10:03:14;1.17;;;0.38;;
25639;SDS011;13497;48.322;16.204;2022-11-03T10:05:44;0.13;;;0.13;;
25639;SDS011;13497;48.322;16.204;2022-11-03T10:08:19;0.77;;;0.50;;
25639;SDS011;13497;48.322;16.204;2022-11-03T10:10:50;2.67;;;0.55;;
25639;SDS011;13497;48.322;16.204;2022-11-03T10:15:48;4.60;;;0.50;;
25639;SDS011;13497;48.322;16.204;2022-11-03T10:18:14;2.97;;;0.40;;
25639;SDS011;13497;48.322;16.204;2022-11-03T10:20:40;0.67;;;0.30;;
25639;SDS011;13497;48.322;16.204;2022-11-03T10:23:07;1.40;;;0.60;;
25639;SDS011;13497;48.322;16.204;2022-11-03T10:25:37;3.25;;;0.80;;
25639;SDS011;13497;48.322;16.204;2022-11-03T10:30:52;0.93;;;0.63;;
25639;SDS011;13497;48.322;16.204;2022-11-03T10:33:54;0.40;;;0.40;;
25639;SDS011;13497;48.322;16.204;2022-11-03T10:38:41;0.77;;;0.50;;
25639;SDS011;13497;48.322;16.204;2022-11-03T10:43:33;2.92;;;0.50;;
25639;SDS011;13497;48.322;16.204;2022-11-03T10:46:18;1.17;;;1.00;;
25639;SDS011;13497;48.322;16.204;2022-11-03T10:54:14;1.02;;;0.82;;
25639;SDS011;13497;48.322;16.204;2022-11-03T10:56:42;0.93;;;0.50;;
25639;SDS011;13497;48.322;16.204;2022-11-03T10:59:18;0.98;;;0.40;;
25639;SDS011;13497;48.322;16.204;2022-11-03T11:01:46;0.50;;;0.45;;
25639;SDS011;13497;48.322;16.204;2022-11-03T11:04:15;0.82;;;0.43;;
25639;SDS011;13497;48.322;16.204;2022-11-03T11:06:42;0.35;;;0.32;;
25639;SDS011;13497;48.322;16.204;2022-11-03T11:09:08;2.13;;;0.63;;
25639;SDS011;13497;48.322;16.204;2022-11-03T11:11:36;4.28;;;0.60;;
25639;SDS011;13497;48.322;16.204;2022-11-03T11:16:56;0.60;;;0.35;;
25639;SDS011;13497;48.322;16.204;2022-11-03T11:19:23;0.88;;;0.63;;
25639;SDS011;13497;48.322;16.204;2022-11-03T11:25:04;2.63;;;1.35;;
25639;SDS011;13497;48.322;16.204;2022-11-03T11:30:01;1.13;;;0.70;;
25639;SDS011;13497;48.322;16.204;2022-11-03T11:35:00;0.65;;;0.60;;
25639;SDS011;13497;48.322;16.204;2022-11-03T11:39:52;2.22;;;0.85;;
25639;SDS011;13497;48.322;16.204;2022-11-03T11:42:18;1.88;;;0.60;;
25639;SDS011;13497;48.322;16.204;2022-11-03T11:47:19;0.90;;;0.70;;
25639;SDS011;13497;48.322;16.204;2022-11-03T11:49:46;4.10;;;0.63;;
25639;SDS011;13497;48.322;16.204;2022-11-03T11:52:11;1.20;;;0.70;;
25639;SDS011;13497;48.322;16.204;2022-11-03T11:54:39;1.43;;;0.40;;
25639;SDS011;13497;48.322;16.204;2022-11-03T11:57:16;1.20;;;0.40;;
25639;SDS011;13497;48.322;16.204;2022-11-03T12:02:21;0.82;;;0.47;;
25639;SDS011;13497;48.322;16.204;2022-11-03T12:04:49;1.02;;;0.40;;
25639;SDS011;13497;48.322;16.204;2022-11-03T12:07:33;3.28;;;0.75;;
25639;SDS011;13497;48.322;16.204;2022-11-03T12:10:07;2.08;;;0.70;;
25639;SDS011;13497;48.322;16.204;2022-11-03T12:12:43;0.35;;;0.30;;
25639;SDS011;13497;48.322;16.204;2022-11-03T12:23:40;1.15;;;0.40;;
25639;SDS011;13497;48.322;16.204;2022-11-03T12:26:15;0.50;;;0.50;;
25639;SDS011;13497;48.322;16.204;2022-11-03T12:28:42;1.00;;;0.70;;
25639;SDS011;13497;48.322;16.204;2022-11-03T12:31:08;0.65;;;0.65;;
25639;SDS011;13497;48.322;16.204;2022-11-03T12:33:34;1.98;;;0.60;;
25639;SDS011;13497;48.322;16.204;2022-11-03T12:36:00;1.63;;;0.80;;
25639;SDS011;13497;48.322;16.204;2022-11-03T12:38:25;1.70;;;0.50;;
25639;SDS011;13497;48.322;16.204;2022-11-03T12:40:51;0.60;;;0.50;;
25639;SDS011;13497;48.322;16.204;2022-11-03T12:43:17;2.17;;;0.57;;
25639;SDS011;13497;48.322;16.204;2022-11-03T12:45:44;0.60;;;0.60;;
25639;SDS011;13497;48.322;16.204;2022-11-03T12:48:09;0.50;;;0.50;;
25639;SDS011;13497;48.322;16.204;2022-11-03T12:50:35;0.73;;;0.60;;
25639;SDS011;13497;48.322;16.204;2022-11-03T12:53:03;0.60;;;0.60;;
25639;SDS011;13497;48.322;16.204;2022-11-03T12:55:30;1.20;;;0.40;;
25639;SDS011;13497;48.322;16.204;2022-11-03T13:00:22;0.93;;;0.50;;
25639;SDS011;13497;48.322;16.204;2022-11-03T13:02:48;0.77;;;0.50;;
25639;SDS011;13497;48.322;16.204;2022-11-03T13:05:15;0.88;;;0.40;;
25639;SDS011;13497;48.322;16.204;2022-11-03T13:07:41;0.93;;;0.83;;
25639;SDS011;13497;48.322;16.204;2022-11-03T13:12:33;1.20;;;0.52;;
25639;SDS011;13497;48.322;16.204;2022-11-03T13:15:01;2.05;;;0.90;;
25639;SDS011;13497;48.322;16.204;2022-11-03T13:17:31;0.85;;;0.60;;
25639;SDS011;13497;48.322;16.204;2022-11-03T13:19:58;0.73;;;0.68;;
25639;SDS011;13497;48.322;16.204;2022-11-03T13:22:24;1.15;;;0.80;;
25639;SDS011;13497;48.322;16.204;2022-11-03T13:24:51;0.90;;;0.77;;
25639;SDS011;13497;48.322;16.204;2022-11-03T13:27:17;0.90;;;0.73;;
25639;SDS011;13497;48.322;16.204;2022-11-03T13:29:42;1.60;;;0.87;;
25639;SDS011;13497;48.322;16.204;2022-11-03T13:32:08;2.33;;;1.05;;
25639;SDS011;13497;48.322;16.204;2022-11-03T13:34:34;0.80;;;0.70;;
25639;SDS011;13497;48.322;16.204;2022-11-03T13:37:00;1.37;;;1.00;;
25639;SDS011;13497;48.322;16.204;2022-11-03T13:39:25;1.53;;;0.93;;
25639;SDS011;13497;48.322;16.204;2022-11-03T13:41:51;0.60;;;0.60;;
25639;SDS011;13497;48.322;16.204;2022-11-03T13:44:16;2.97;;;0.83;;
25639;SDS011;13497;48.322;16.204;2022-11-03T13:46:42;0.97;;;0.90;;
25639;SDS011;13497;48.322;16.204;2022-11-03T13:49:07;2.03;;;0.80;;
25639;SDS011;13497;48.322;16.204;2022-11-03T13:51:33;1.00;;;0.80;;
25639;SDS011;13497;48.322;16.204;2022-11-03T13:53:59;0.83;;;0.70;;
25639;SDS011;13497;48.322;16.204;2022-11-03T13:56:24;1.07;;;0.77;;
25639;SDS011;13497;48.322;16.204;2022-11-03T13:58:50;1.38;;;1.25;;
25639;SDS011;13497;48.322;16.204;2022-11-03T14:01:16;1.03;;;0.93;;
25639;SDS011;13497;48.322;16.204;2022-11-03T14:03:41;1.93;;;0.67;;
25639;SDS011;13497;48.322;16.204;2022-11-03T14:06:07;3.47;;;0.83;;
25639;SDS011;13497;48.322;16.204;2022-11-03T14:08:33;2.13;;;0.88;;
25639;SDS011;13497;48.322;16.204;2022-11-03T14:10:59;1.48;;;1.10;;
25639;SDS011;13497;48.322;16.204;2022-11-03T14:13:44;1.05;;;0.75;;
25639;SDS011;13497;48.322;16.204;2022-11-03T14:16:10;1.70;;;1.20;;
25639;SDS011;13497;48.322;16.204;2022-11-03T14:18:35;3.67;;;1.00;;
25639;SDS011;13497;48.322;16.204;2022-11-03T14:21:01;1.47;;;0.80;;
25639;SDS011;13497;48.322;16.204;2022-11-03T14:23:27;2.60;;;0.70;;
25639;SDS011;13497;48.322;16.204;2022-11-03T14:25:52;1.77;;;1.00;;
25639;SDS011;13497;48.322;16.204;2022-11-03T14:28:18;0.70;;;0.70;;
25639;SDS011;13497;48.322;16.204;2022-11-03T14:30:44;1.93;;;0.70;;
25639;SDS011;13497;48.322;16.204;2022-11-03T14:33:09;3.17;;;1.17;;
25639;SDS011;13497;48.322;16.204;2022-11-03T14:35:35;0.85;;;0.70;;
25639;SDS011;13497;48.322;16.204;2022-11-03T14:38:01;0.80;;;0.67;;
25639;SDS011;13497;48.322;16.204;2022-11-03T14:40:26;1.50;;;0.87;;
25639;SDS011;13497;48.322;16.204;2022-11-03T14:43:10;2.25;;;0.68;;
25639;SDS011;13497;48.322;16.204;2022-11-03T14:45:36;1.63;;;0.70;;
25639;SDS011;13497;48.322;16.204;2022-11-03T14:48:02;1.27;;;0.83;;
25639;SDS011;13497;48.322;16.204;2022-11-03T14:50:27;2.77;;;1.00;;
25639;SDS011;13497;48.322;16.204;2022-11-03T14:52:53;1.67;;;0.88;;
25639;SDS011;13497;48.322;16.204;2022-11-03T14:55:19;2.00;;;1.17;;
25639;SDS011;13497;48.322;16.204;2022-11-03T14:57:44;1.80;;;0.93;;
25639;SDS011;13497;48.322;16.204;2022-11-03T15:00:10;1.40;;;0.70;;
25639;SDS011;13497;48.322;16.204;2022-11-03T15:02:37;1.35;;;1.00;;
25639;SDS011;13497;48.322;16.204;2022-11-03T15:05:02;2.00;;;0.80;;
25639;SDS011;13497;48.322;16.204;2022-11-03T15:07:28;1.40;;;0.90;;
25639;SDS011;13497;48.322;16.204;2022-11-03T15:09:56;0.90;;;0.80;;
25639;SDS011;13497;48.322;16.204;2022-11-03T15:12:22;2.08;;;0.65;;
25639;SDS011;13497;48.322;16.204;2022-11-03T15:14:47;5.70;;;0.97;;
25639;SDS011;13497;48.322;16.204;2022-11-03T15:17:13;1.00;;;0.70;;
25639;SDS011;13497;48.322;16.204;2022-11-03T15:19:39;1.65;;;1.10;;
25639;SDS011;13497;48.322;16.204;2022-11-03T15:22:05;1.10;;;0.90;;
25639;SDS011;13497;48.322;16.204;2022-11-03T15:24:30;1.20;;;0.97;;
25639;SDS011;13497;48.322;16.204;2022-11-03T15:26:56;1.77;;;0.87;;
25639;SDS011;13497;48.322;16.204;2022-11-03T15:29:21;3.80;;;1.43;;
25639;SDS011;13497;48.322;16.204;2022-11-03T15:31:47;0.93;;;0.60;;
25639;SDS011;13497;48.322;16.204;2022-11-03T15:34:14;3.00;;;0.77;;
25639;SDS011;13497;48.322;16.204;2022-11-03T15:36:39;0.85;;;0.70;;
25639;SDS011;13497;48.322;16.204;2022-11-03T15:39:05;0.83;;;0.53;;
25639;SDS011;13497;48.322;16.204;2022-11-03T15:41:31;1.17;;;0.97;;
25639;SDS011;13497;48.322;16.204;2022-11-03T15:43:56;3.43;;;1.00;;
25639;SDS011;13497;48.322;16.204;2022-11-03T15:46:22;4.67;;;1.33;;
25639;SDS011;13497;48.322;16.204;2022-11-03T15:48:47;1.33;;;0.93;;
25639;SDS011;13497;48.322;16.204;2022-11-03T15:51:13;2.20;;;1.20;;
25639;SDS011;13497;48.322;16.204;2022-11-03T15:53:39;2.67;;;1.20;;
25639;SDS011;13497;48.322;16.204;2022-11-03T15:56:05;2.15;;;1.15;;
25639;SDS011;13497;48.322;16.204;2022-11-03T16:00:58;1.77;;;1.23;;
25639;SDS011;13497;48.322;16.204;2022-11-03T16:03:28;1.70;;;1.08;;
25639;SDS011;13497;48.322;16.204;2022-11-03T16:05:54;1.25;;;0.93;;
25639;SDS011;13497;48.322;16.204;2022-11-03T16:08:21;1.98;;;1.42;;
25639;SDS011;13497;48.322;16.204;2022-11-03T16:10:46;2.17;;;1.03;;
25639;SDS011;13497;48.322;16.204;2022-11-03T16:13:12;2.70;;;1.40;;
25639;SDS011;13497;48.322;16.204;2022-11-03T16:18:04;1.60;;;0.80;;
25639;SDS011;13497;48.322;16.204;2022-11-03T16:20:30;2.27;;;1.00;;
25639;SDS011;13497;48.322;16.204;2022-11-03T16:22:55;3.60;;;1.43;;
25639;SDS011;13497;48.322;16.204;2022-11-03T16:25:21;1.90;;;0.90;;
25639;SDS011;13497;48.322;16.204;2022-11-03T16:27:47;1.40;;;1.00;;
25639;SDS011;13497;48.322;16.204;2022-11-03T16:30:12;1.60;;;0.70;;
25639;SDS011;13497;48.322;16.204;2022-11-03T16:32:38;2.80;;;0.93;;
25639;SDS011;13497;48.322;16.204;2022-11-03T16:35:04;1.97;;;0.70;;